createdAt,value
2019-03-09T00:01:49.055Z,89.21
2019-03-09T00:06:52.492Z,87.89
2019-03-09T00:11:55.915Z,90.96
2019-03-09T00:16:59.357Z,89.98
2019-03-09T00:22:02.780Z,90.45
2019-03-09T00:27:08.021Z,89.50
2019-03-09T00:32:15.829Z,91.78
2019-03-09T00:37:19.265Z,93.11
2019-03-09T00:42:22.728Z,90.38
2019-03-09T00:47:26.608Z,89.71
2019-03-09T00:52:30.055Z,91.27
2019-03-09T00:57:33.515Z,91.21
2019-03-09T01:02:36.951Z,93.43
2019-03-09T01:07:40.359Z,92.18
2019-03-09T01:12:43.864Z,92.22
2019-03-09T01:17:47.377Z,92.20
2019-03-09T01:22:50.913Z,91.51
2019-03-09T01:27:54.331Z,91.54
2019-03-09T01:32:57.804Z,89.96
2019-03-09T01:38:01.208Z,92.69
2019-03-09T01:43:04.709Z,97.60
2019-03-09T01:48:08.153Z,100.00
2019-03-09T01:53:11.590Z,100.00
2019-03-09T01:58:16.591Z,100.00
2019-03-09T02:03:19.986Z,100.00
2019-03-09T02:08:23.855Z,100.00
2019-03-09T02:13:27.299Z,100.00
2019-03-09T02:18:30.738Z,100.00
2019-03-09T02:23:34.177Z,100.00
2019-03-09T02:28:37.601Z,100.00
2019-03-09T02:33:41.962Z,100.00
2019-03-09T02:43:59.364Z,100.00
2019-03-09T02:49:02.807Z,100.00
2019-03-09T02:54:06.276Z,100.00
2019-03-09T02:59:09.715Z,100.00
2019-03-09T03:04:13.207Z,100.00
2019-03-09T03:09:16.705Z,100.00
2019-03-09T03:14:20.368Z,100.00
2019-03-09T03:19:23.798Z,100.00
2019-03-09T03:24:27.238Z,100.00
2019-03-09T03:29:30.661Z,100.00
2019-03-09T03:34:34.099Z,100.00
2019-03-09T03:39:37.530Z,100.00
2019-03-09T03:44:46.819Z,100.00
2019-03-09T03:49:50.261Z,100.00
2019-03-09T03:54:53.703Z,100.00
2019-03-09T03:59:57.234Z,100.00
2019-03-09T04:05:00.688Z,100.00
2019-03-09T04:10:06.296Z,100.00
2019-03-09T04:15:10.345Z,100.00
2019-03-09T04:20:14.132Z,100.00
2019-03-09T04:25:17.583Z,100.00
2019-03-09T04:30:21.019Z,100.00
2019-03-09T04:35:24.481Z,100.00
2019-03-09T04:40:27.921Z,100.00
2019-03-09T04:45:31.399Z,100.00
2019-03-09T04:50:34.861Z,100.00
2019-03-09T04:55:38.276Z,100.00
2019-03-09T05:00:41.735Z,100.00
2019-03-09T05:05:45.264Z,100.00
2019-03-09T05:10:54.943Z,100.00
2019-03-09T05:15:58.448Z,100.00
2019-03-09T05:21:01.876Z,100.00
2019-03-09T05:26:05.297Z,100.00
2019-03-09T05:31:08.745Z,100.00
2019-03-09T05:36:12.172Z,100.00
2019-03-09T05:41:16.626Z,100.00
2019-03-09T05:46:20.749Z,100.00
2019-03-09T05:51:24.289Z,100.00
2019-03-09T05:56:27.902Z,100.00
2019-03-09T06:01:31.412Z,100.00
2019-03-09T06:06:34.820Z,100.00
2019-03-09T06:11:38.253Z,100.00
2019-03-09T06:16:41.684Z,100.00
2019-03-09T06:21:45.588Z,100.00
2019-03-09T06:26:51.820Z,100.00
2019-03-09T06:32:52.677Z,100.00
2019-03-09T06:38:05.113Z,100.00
2019-03-09T06:43:08.560Z,100.00
2019-03-09T06:48:11.975Z,100.00
2019-03-09T06:53:15.470Z,100.00
2019-03-09T06:58:18.865Z,100.00
2019-03-09T07:03:22.288Z,100.00
2019-03-09T07:08:25.761Z,100.00
2019-03-09T07:13:29.193Z,100.00
2019-03-09T07:18:33.341Z,100.00
2019-03-09T07:23:36.784Z,100.00
2019-03-09T07:28:40.220Z,100.00
2019-03-09T07:33:43.664Z,100.00
2019-03-09T07:38:47.124Z,100.00
2019-03-09T07:43:50.570Z,100.00
2019-03-09T07:48:54.110Z,100.00
2019-03-09T07:53:57.558Z,100.00
2019-03-09T07:59:01.026Z,100.00
2019-03-09T08:04:04.579Z,100.00
2019-03-09T08:09:08.172Z,100.00
2019-03-09T08:14:11.600Z,100.00
2019-03-09T08:19:15.068Z,100.00
2019-03-09T08:24:18.584Z,100.00
2019-03-09T08:29:22.082Z,100.00
2019-03-09T08:34:25.543Z,100.00
2019-03-09T08:39:28.953Z,100.00
2019-03-09T08:44:32.486Z,100.00
2019-03-09T08:49:36.902Z,100.00
2019-03-09T08:54:40.411Z,99.58
2019-03-09T08:59:43.931Z,99.55
2019-03-09T09:04:47.356Z,97.52
2019-03-09T09:09:50.782Z,94.92
2019-03-09T09:14:54.232Z,95.25
2019-03-09T09:19:57.675Z,95.92
2019-03-09T09:25:01.119Z,97.84
2019-03-09T09:30:10.626Z,96.81
2019-03-09T09:35:14.714Z,93.61
2019-03-09T09:40:23.574Z,94.92
2019-03-09T09:45:27.103Z,94.08
2019-03-09T09:50:30.626Z,93.82
2019-03-09T09:55:34.326Z,93.76
2019-03-09T10:00:37.753Z,93.42
2019-03-09T10:05:41.204Z,92.74
2019-03-09T10:10:55.087Z,91.36
2019-03-09T10:16:04.442Z,92.41
2019-03-09T10:21:07.911Z,90.78
2019-03-09T10:26:11.434Z,91.14
2019-03-09T10:31:14.918Z,90.77
2019-03-09T10:36:18.372Z,91.46
2019-03-09T10:41:21.985Z,89.31
2019-03-09T10:46:25.414Z,89.74
2019-03-09T10:51:28.822Z,88.35
2019-03-09T10:56:32.299Z,89.12
2019-03-09T11:01:37.453Z,87.86
2019-03-09T11:06:40.881Z,86.47
2019-03-09T11:11:44.356Z,86.09
2019-03-09T11:16:47.741Z,83.48
2019-03-09T11:21:51.230Z,81.40
2019-03-09T11:32:29.335Z,79.83
2019-03-09T11:37:34.150Z,80.80
2019-03-09T11:42:42.242Z,79.31
2019-03-09T11:47:45.857Z,80.26
2019-03-09T11:52:49.282Z,77.91
2019-03-09T11:57:52.774Z,77.16
2019-03-09T12:02:56.316Z,74.55
2019-03-09T12:07:59.756Z,73.09
2019-03-09T12:13:13.088Z,71.06
2019-03-09T12:18:19.857Z,69.65
2019-03-09T12:23:26.001Z,65.43
2019-03-09T12:28:30.938Z,62.65
2019-03-09T12:33:34.370Z,63.31
2019-03-09T12:38:37.841Z,65.37
2019-03-09T12:43:42.821Z,68.34
2019-03-09T12:48:46.279Z,68.91
2019-03-09T12:53:54.288Z,68.50
2019-03-09T12:59:36.953Z,69.03
2019-03-09T13:04:40.381Z,66.21
2019-03-09T13:09:43.811Z,65.70
2019-03-09T13:14:49.954Z,64.91
2019-03-09T13:19:54.438Z,67.72
2019-03-09T13:25:00.890Z,68.68
2019-03-09T13:30:09.339Z,69.35
2019-03-09T13:35:12.965Z,70.73
2019-03-09T13:40:17.047Z,68.51
2019-03-09T13:45:20.489Z,68.98
2019-03-09T13:50:23.905Z,70.63
2019-03-09T13:55:27.347Z,70.59
2019-03-09T14:00:40.499Z,70.80
2019-03-09T14:05:38.394Z,72.37
2019-03-09T14:10:41.821Z,73.70
2019-03-09T14:15:45.320Z,69.78
2019-03-09T14:20:48.772Z,82.65
2019-03-09T14:25:53.854Z,93.05
2019-03-09T14:30:58.626Z,99.95
2019-03-09T14:36:11.733Z,100.00
2019-03-09T14:46:46.464Z,97.68
2019-03-09T14:51:49.941Z,92.58
2019-03-09T14:56:53.463Z,92.72
2019-03-09T15:01:56.982Z,93.61
2019-03-09T15:07:28.338Z,94.88
2019-03-09T15:12:31.778Z,94.84
2019-03-09T15:18:01.940Z,93.94
2019-03-09T15:28:49.695Z,93.35
2019-03-09T15:33:53.123Z,88.87
2019-03-09T15:38:56.567Z,91.04
2019-03-09T15:43:59.971Z,89.14
2019-03-09T15:49:03.404Z,88.05
2019-03-09T15:54:06.900Z,94.15
2019-03-09T15:59:10.332Z,100.00
2019-03-09T16:04:13.790Z,100.00
2019-03-09T16:09:17.252Z,100.00
2019-03-09T16:14:20.787Z,100.00
2019-03-09T16:19:24.224Z,100.00
2019-03-09T16:24:27.641Z,100.00
2019-03-09T16:29:31.074Z,100.00
2019-03-09T16:34:34.502Z,100.00
2019-03-09T16:39:37.946Z,100.00
2019-03-09T16:44:41.373Z,100.00
2019-03-09T16:49:44.824Z,100.00
2019-03-09T16:54:48.242Z,100.00
2019-03-09T16:59:51.661Z,100.00
2019-03-09T17:04:55.174Z,100.00
2019-03-09T17:09:58.646Z,98.90
2019-03-09T17:15:02.084Z,95.66
2019-03-09T17:20:08.347Z,93.01
2019-03-09T17:25:11.904Z,88.25
2019-03-09T17:30:17.271Z,88.93
2019-03-09T17:35:23.497Z,88.00
2019-03-09T17:40:26.926Z,86.71
2019-03-09T17:45:30.351Z,86.65
2019-03-09T17:50:33.779Z,85.62
2019-03-09T17:55:37.200Z,83.42
2019-03-09T18:00:42.865Z,82.19
2019-03-09T18:05:46.353Z,81.02
2019-03-09T18:10:55.738Z,79.40
2019-03-09T18:15:59.150Z,80.07
2019-03-09T18:21:02.586Z,79.30
2019-03-09T18:26:05.998Z,78.81
2019-03-09T18:31:11.744Z,78.23
2019-03-09T18:36:15.233Z,79.06
2019-03-09T18:41:18.731Z,78.39
2019-03-09T18:46:22.140Z,78.50
2019-03-09T18:51:25.582Z,79.44
2019-03-09T18:56:29.078Z,81.61
2019-03-09T19:01:32.819Z,79.40
2019-03-09T19:06:36.254Z,79.79
2019-03-09T19:11:39.694Z,76.11
2019-03-09T19:16:43.114Z,79.08
2019-03-09T19:21:46.786Z,79.77
2019-03-09T19:26:50.176Z,80.14
2019-03-09T19:31:53.652Z,79.38
2019-03-09T19:36:58.942Z,81.90
2019-03-09T19:42:03.245Z,83.13
2019-03-09T19:47:06.666Z,84.17
2019-03-09T19:52:10.133Z,86.85
2019-03-09T19:57:13.547Z,85.66
2019-03-09T20:02:16.972Z,85.25
2019-03-09T20:07:20.408Z,85.14
2019-03-09T20:12:23.833Z,85.41
2019-03-09T20:17:27.251Z,85.99
2019-03-09T20:22:30.691Z,85.35
2019-03-09T20:27:34.214Z,86.97
2019-03-09T20:32:37.772Z,85.15
2019-03-09T20:37:41.186Z,85.60
2019-03-09T20:42:45.799Z,85.29
2019-03-09T20:47:50.676Z,86.29
2019-03-09T20:52:54.202Z,85.82
2019-03-09T20:57:57.623Z,86.61
2019-03-09T21:03:01.045Z,87.95
2019-03-09T21:08:04.493Z,88.23
2019-03-09T21:13:09.274Z,87.80
2019-03-09T21:18:12.711Z,88.58
2019-03-09T21:23:16.171Z,89.04
2019-03-09T21:28:19.611Z,87.47
2019-03-09T21:33:23.048Z,88.15
2019-03-09T21:38:26.533Z,88.46
2019-03-09T21:43:29.973Z,88.32
2019-03-09T21:48:33.425Z,92.22
2019-03-09T21:53:36.860Z,92.75
2019-03-09T21:58:40.274Z,92.51
2019-03-09T22:03:43.714Z,92.17
2019-03-09T22:08:47.161Z,92.54
2019-03-09T22:13:50.587Z,92.40
2019-03-09T22:18:54.021Z,92.95
2019-03-09T22:23:57.842Z,93.56
2019-03-09T22:29:01.256Z,93.31
2019-03-09T22:34:04.757Z,93.22
2019-03-09T22:39:08.569Z,93.60
2019-03-09T22:44:12.019Z,93.67
2019-03-09T22:49:15.437Z,94.48
2019-03-09T22:54:18.856Z,93.19
2019-03-09T22:59:22.287Z,92.82
2019-03-09T23:04:25.876Z,92.57
2019-03-09T23:09:29.443Z,93.17
2019-03-09T23:14:33.959Z,92.23
2019-03-09T23:19:37.460Z,92.45
2019-03-09T23:24:40.879Z,92.05
2019-03-09T23:29:44.310Z,92.31
2019-03-09T23:34:47.728Z,91.52
2019-03-09T23:39:51.166Z,91.05
2019-03-09T23:44:54.606Z,91.40
2019-03-09T23:49:58.020Z,90.82
2019-03-09T23:55:01.515Z,89.67
